sensor_id;sensor_type;location;lat;lon;timestamp;pressure;altitude;pressure_sealevel;temperature;humidity
56681;BME280;42558;52.388;13.390;2023-04-09T00:01:21;102240.89;;;1.45;100.00
56681;BME280;42558;52.388;13.390;2023-04-09T00:03:51;102239.49;;;1.43;100.00
56681;BME280;42558;52.388;13.390;2023-04-09T00:06:21;102242.03;;;1.34;100.00
56681;BME280;42558;52.388;13.390;2023-04-09T00:08:51;102242.83;;;1.29;100.00
56681;BME280;42558;52.388;13.390;2023-04-09T00:11:21;102241.89;;;1.23;100.00
56681;BME280;42558;52.388;13.390;2023-04-09T00:13:51;102242.31;;;1.15;100.00
56681;BME280;42558;52.388;13.390;2023-04-09T00:16:21;102245.71;;;1.10;100.00
56681;BME280;42558;52.388;13.390;2023-04-09T00:18:51;102246.79;;;1.06;100.00
56681;BME280;42558;52.388;13.390;2023-04-09T00:21:21;102247.65;;;1.01;100.00
56681;BME280;42558;52.388;13.390;2023-04-09T00:23:51;102243.31;;;0.99;100.00
56681;BME280;42558;52.388;13.390;2023-04-09T00:26:21;102247.16;;;0.99;100.00
56681;BME280;42558;52.388;13.390;2023-04-09T00:28:51;102247.48;;;0.90;100.00
56681;BME280;42558;52.388;13.390;2023-04-09T00:31:21;102246.75;;;0.85;100.00
56681;BME280;42558;52.388;13.390;2023-04-09T00:33:51;102248.84;;;0.80;100.00
56681;BME280;42558;52.388;13.390;2023-04-09T00:36:21;102244.17;;;0.78;100.00
56681;BME280;42558;52.388;13.390;2023-04-09T00:38:52;102240.02;;;0.76;100.00
56681;BME280;42558;52.388;13.390;2023-04-09T00:41:23;102244.18;;;0.74;100.00
56681;BME280;42558;52.388;13.390;2023-04-09T00:43:55;102247.16;;;0.70;100.00
56681;BME280;42558;52.388;13.390;2023-04-09T00:46:26;102249.60;;;0.65;100.00
56681;BME280;42558;52.388;13.390;2023-04-09T00:48:56;102247.49;;;0.63;100.00
56681;BME280;42558;52.388;13.390;2023-04-09T00:51:26;102242.66;;;0.61;100.00
56681;BME280;42558;52.388;13.390;2023-04-09T00:53:57;102244.14;;;0.58;100.00
56681;BME280;42558;52.388;13.390;2023-04-09T00:56:29;102243.27;;;0.62;100.00
56681;BME280;42558;52.388;13.390;2023-04-09T00:58:59;102244.08;;;0.70;100.00
56681;BME280;42558;52.388;13.390;2023-04-09T01:01:29;102238.55;;;0.68;100.00
56681;BME280;42558;52.388;13.390;2023-04-09T01:04:00;102241.80;;;0.63;100.00
56681;BME280;42558;52.388;13.390;2023-04-09T01:07:02;102242.77;;;0.56;100.00
56681;BME280;42558;52.388;13.390;2023-04-09T01:15:50;102236.77;;;0.45;100.00
56681;BME280;42558;52.388;13.390;2023-04-09T01:18:34;102238.73;;;0.39;100.00
56681;BME280;42558;52.388;13.390;2023-04-09T01:21:12;102240.61;;;0.33;100.00
56681;BME280;42558;52.388;13.390;2023-04-09T01:27:03;102236.07;;;0.21;100.00
56681;BME280;42558;52.388;13.390;2023-04-09T01:29:44;102236.02;;;0.16;100.00
56681;BME280;42558;52.388;13.390;2023-04-09T01:32:18;102238.80;;;0.12;100.00
56681;BME280;42558;52.388;13.390;2023-04-09T01:34:50;102235.68;;;0.07;100.00
56681;BME280;42558;52.388;13.390;2023-04-09T01:37:22;102235.79;;;0.04;100.00
56681;BME280;42558;52.388;13.390;2023-04-09T01:39:54;102244.47;;;0.03;100.00
56681;BME280;42558;52.388;13.390;2023-04-09T01:42:25;102245.02;;;-0.01;100.00
56681;BME280;42558;52.388;13.390;2023-04-09T01:44:57;102241.36;;;-0.04;100.00
56681;BME280;42558;52.388;13.390;2023-04-09T01:47:29;102244.66;;;-0.08;100.00
56681;BME280;42558;52.388;13.390;2023-04-09T01:50:01;102242.84;;;-0.12;100.00
56681;BME280;42558;52.388;13.390;2023-04-09T01:52:31;102246.67;;;-0.13;100.00
56681;BME280;42558;52.388;13.390;2023-04-09T01:55:01;102247.64;;;-0.16;100.00
56681;BME280;42558;52.388;13.390;2023-04-09T01:57:31;102244.80;;;-0.21;100.00
56681;BME280;42558;52.388;13.390;2023-04-09T02:00:01;102247.77;;;-0.23;100.00
56681;BME280;42558;52.388;13.390;2023-04-09T02:02:41;102251.39;;;-0.28;100.00
56681;BME280;42558;52.388;13.390;2023-04-09T02:05:17;102248.84;;;-0.31;100.00
56681;BME280;42558;52.388;13.390;2023-04-09T02:07:55;102251.01;;;-0.33;100.00
56681;BME280;42558;52.388;13.390;2023-04-09T02:10:30;102250.18;;;-0.36;100.00
56681;BME280;42558;52.388;13.390;2023-04-09T02:13:04;102252.45;;;-0.38;100.00
56681;BME280;42558;52.388;13.390;2023-04-09T02:15:36;102253.72;;;-0.39;100.00
56681;BME280;42558;52.388;13.390;2023-04-09T02:18:24;102254.15;;;-0.40;100.00
56681;BME280;42558;52.388;13.390;2023-04-09T02:20:56;102256.65;;;-0.43;100.00
56681;BME280;42558;52.388;13.390;2023-04-09T02:23:27;102256.96;;;-0.42;100.00
56681;BME280;42558;52.388;13.390;2023-04-09T02:25:57;102252.53;;;-0.39;100.00
56681;BME280;42558;52.388;13.390;2023-04-09T02:28:27;102253.02;;;-0.40;100.00
56681;BME280;42558;52.388;13.390;2023-04-09T02:30:56;102253.41;;;-0.39;100.00
56681;BME280;42558;52.388;13.390;2023-04-09T02:33:26;102252.83;;;-0.38;100.00
56681;BME280;42558;52.388;13.390;2023-04-09T02:35:56;102252.95;;;-0.42;100.00
56681;BME280;42558;52.388;13.390;2023-04-09T02:38:26;102256.95;;;-0.50;100.00
56681;BME280;42558;52.388;13.390;2023-04-09T02:40:56;102259.54;;;-0.57;100.00
56681;BME280;42558;52.388;13.390;2023-04-09T02:43:26;102256.86;;;-0.60;100.00
56681;BME280;42558;52.388;13.390;2023-04-09T02:45:55;102257.68;;;-0.63;100.00
56681;BME280;42558;52.388;13.390;2023-04-09T02:48:25;102252.65;;;-0.67;100.00
56681;BME280;42558;52.388;13.390;2023-04-09T02:50:56;102254.45;;;-0.72;100.00
56681;BME280;42558;52.388;13.390;2023-04-09T02:53:26;102256.08;;;-0.78;100.00
56681;BME280;42558;52.388;13.390;2023-04-09T02:55:55;102255.48;;;-0.85;100.00
56681;BME280;42558;52.388;13.390;2023-04-09T02:58:25;102254.98;;;-0.87;100.00
56681;BME280;42558;52.388;13.390;2023-04-09T03:00:55;102251.85;;;-0.89;100.00
56681;BME280;42558;52.388;13.390;2023-04-09T03:03:25;102254.00;;;-0.90;100.00
56681;BME280;42558;52.388;13.390;2023-04-09T03:05:53;102250.67;;;-0.91;100.00
56681;BME280;42558;52.388;13.390;2023-04-09T03:08:22;102248.09;;;-0.93;100.00
56681;BME280;42558;52.388;13.390;2023-04-09T03:10:50;102248.50;;;-0.98;100.00
56681;BME280;42558;52.388;13.390;2023-04-09T03:13:19;102245.76;;;-0.98;100.00
56681;BME280;42558;52.388;13.390;2023-04-09T03:15:51;102244.86;;;-1.00;100.00
56681;BME280;42558;52.388;13.390;2023-04-09T03:18:22;102239.88;;;-1.02;100.00
56681;BME280;42558;52.388;13.390;2023-04-09T03:20:52;102243.33;;;-1.00;100.00
56681;BME280;42558;52.388;13.390;2023-04-09T03:23:22;102240.80;;;-1.01;100.00
56681;BME280;42558;52.388;13.390;2023-04-09T03:26:04;102237.98;;;-1.02;100.00
56681;BME280;42558;52.388;13.390;2023-04-09T03:28:34;102236.95;;;-1.04;100.00
56681;BME280;42558;52.388;13.390;2023-04-09T03:31:04;102237.95;;;-1.08;100.00
56681;BME280;42558;52.388;13.390;2023-04-09T03:33:34;102234.43;;;-1.12;100.00
56681;BME280;42558;52.388;13.390;2023-04-09T03:36:04;102230.83;;;-1.15;100.00
56681;BME280;42558;52.388;13.390;2023-04-09T03:38:34;102231.42;;;-1.15;100.00
56681;BME280;42558;52.388;13.390;2023-04-09T03:41:04;102233.52;;;-1.12;100.00
56681;BME280;42558;52.388;13.390;2023-04-09T03:43:34;102233.63;;;-1.11;100.00
56681;BME280;42558;52.388;13.390;2023-04-09T03:46:15;102234.73;;;-1.10;100.00
56681;BME280;42558;52.388;13.390;2023-04-09T03:48:45;102233.83;;;-1.11;100.00
56681;BME280;42558;52.388;13.390;2023-04-09T03:51:16;102236.89;;;-1.11;100.00
56681;BME280;42558;52.388;13.390;2023-04-09T03:53:46;102233.60;;;-1.13;100.00
56681;BME280;42558;52.388;13.390;2023-04-09T03:56:16;102234.71;;;-1.12;100.00
56681;BME280;42558;52.388;13.390;2023-04-09T03:58:46;102237.59;;;-1.11;100.00
56681;BME280;42558;52.388;13.390;2023-04-09T04:01:18;102240.83;;;-1.14;100.00
56681;BME280;42558;52.388;13.390;2023-04-09T04:03:48;102242.11;;;-1.17;100.00
56681;BME280;42558;52.388;13.390;2023-04-09T04:06:18;102243.68;;;-1.21;100.00
56681;BME280;42558;52.388;13.390;2023-04-09T04:08:48;102243.72;;;-1.24;100.00
56681;BME280;42558;52.388;13.390;2023-04-09T04:11:18;102242.67;;;-1.28;100.00
56681;BME280;42558;52.388;13.390;2023-04-09T04:13:48;102239.12;;;-1.31;100.00
56681;BME280;42558;52.388;13.390;2023-04-09T04:16:18;102240.72;;;-1.31;100.00
56681;BME280;42558;52.388;13.390;2023-04-09T04:18:48;102238.23;;;-1.32;100.00
56681;BME280;42558;52.388;13.390;2023-04-09T04:21:18;102240.95;;;-1.36;100.00
56681;BME280;42558;52.388;13.390;2023-04-09T04:23:48;102238.80;;;-1.44;100.00
56681;BME280;42558;52.388;13.390;2023-04-09T04:26:18;102240.88;;;-1.47;100.00
56681;BME280;42558;52.388;13.390;2023-04-09T04:28:47;102244.38;;;-1.47;100.00
56681;BME280;42558;52.388;13.390;2023-04-09T04:31:17;102245.03;;;-1.45;100.00
56681;BME280;42558;52.388;13.390;2023-04-09T04:33:47;102248.27;;;-1.44;100.00
56681;BME280;42558;52.388;13.390;2023-04-09T04:36:17;102251.09;;;-1.43;100.00
56681;BME280;42558;52.388;13.390;2023-04-09T04:38:47;102251.00;;;-1.44;100.00
56681;BME280;42558;52.388;13.390;2023-04-09T04:41:17;102254.36;;;-1.43;100.00
56681;BME280;42558;52.388;13.390;2023-04-09T04:43:46;102258.15;;;-1.37;100.00
56681;BME280;42558;52.388;13.390;2023-04-09T04:46:16;102266.95;;;-1.37;100.00
56681;BME280;42558;52.388;13.390;2023-04-09T04:49:06;102269.77;;;-1.34;100.00
56681;BME280;42558;52.388;13.390;2023-04-09T04:51:35;102268.67;;;-1.28;100.00
56681;BME280;42558;52.388;13.390;2023-04-09T04:54:04;102269.14;;;-1.24;100.00
56681;BME280;42558;52.388;13.390;2023-04-09T04:56:32;102271.62;;;-1.17;100.00
56681;BME280;42558;52.388;13.390;2023-04-09T04:59:01;102275.69;;;-1.13;100.00
56681;BME280;42558;52.388;13.390;2023-04-09T05:01:29;102277.50;;;-1.10;100.00
56681;BME280;42558;52.388;13.390;2023-04-09T05:03:57;102278.58;;;-1.10;100.00
56681;BME280;42558;52.388;13.390;2023-04-09T05:06:26;102279.31;;;-1.05;100.00
56681;BME280;42558;52.388;13.390;2023-04-09T05:08:54;102283.57;;;-1.02;100.00
56681;BME280;42558;52.388;13.390;2023-04-09T05:11:27;102288.77;;;-1.00;100.00
56681;BME280;42558;52.388;13.390;2023-04-09T05:13:54;102286.39;;;-0.95;100.00
56681;BME280;42558;52.388;13.390;2023-04-09T05:16:23;102284.95;;;-0.88;100.00
56681;BME280;42558;52.388;13.390;2023-04-09T05:18:51;102286.31;;;-0.79;100.00
56681;BME280;42558;52.388;13.390;2023-04-09T05:21:19;102290.64;;;-0.75;100.00
56681;BME280;42558;52.388;13.390;2023-04-09T05:23:48;102291.40;;;-0.64;100.00
56681;BME280;42558;52.388;13.390;2023-04-09T05:26:16;102288.61;;;-0.56;100.00
56681;BME280;42558;52.388;13.390;2023-04-09T05:28:45;102288.19;;;-0.51;100.00
56681;BME280;42558;52.388;13.390;2023-04-09T05:31:13;102288.81;;;-0.41;100.00
56681;BME280;42558;52.388;13.390;2023-04-09T05:33:42;102288.30;;;-0.31;100.00
56681;BME280;42558;52.388;13.390;2023-04-09T05:36:15;102290.94;;;-0.23;100.00
56681;BME280;42558;52.388;13.390;2023-04-09T05:38:46;102288.05;;;-0.12;100.00
56681;BME280;42558;52.388;13.390;2023-04-09T05:41:16;102287.33;;;0.02;100.00
56681;BME280;42558;52.388;13.390;2023-04-09T05:43:46;102285.70;;;0.19;100.00
56681;BME280;42558;52.388;13.390;2023-04-09T05:46:16;102287.95;;;0.25;100.00
56681;BME280;42558;52.388;13.390;2023-04-09T05:48:46;102284.89;;;0.39;100.00
56681;BME280;42558;52.388;13.390;2023-04-09T05:51:16;102284.84;;;0.58;100.00
56681;BME280;42558;52.388;13.390;2023-04-09T05:53:45;102287.70;;;0.75;100.00
56681;BME280;42558;52.388;13.390;2023-04-09T05:56:15;102286.27;;;0.90;100.00
56681;BME280;42558;52.388;13.390;2023-04-09T05:58:45;102286.04;;;1.09;100.00
56681;BME280;42558;52.388;13.390;2023-04-09T06:01:16;102281.58;;;1.26;100.00
56681;BME280;42558;52.388;13.390;2023-04-09T06:03:45;102281.16;;;1.39;100.00
56681;BME280;42558;52.388;13.390;2023-04-09T06:06:16;102278.14;;;1.59;100.00
56681;BME280;42558;52.388;13.390;2023-04-09T06:08:46;102276.39;;;1.73;100.00
56681;BME280;42558;52.388;13.390;2023-04-09T06:11:16;102276.36;;;1.89;100.00
56681;BME280;42558;52.388;13.390;2023-04-09T06:13:46;102274.08;;;2.03;100.00
56681;BME280;42558;52.388;13.390;2023-04-09T06:16:15;102275.14;;;2.22;100.00
56681;BME280;42558;52.388;13.390;2023-04-09T06:18:44;102277.31;;;2.41;100.00
56681;BME280;42558;52.388;13.390;2023-04-09T06:21:12;102277.88;;;2.63;100.00
56681;BME280;42558;52.388;13.390;2023-04-09T06:23:42;102280.22;;;2.75;100.00
56681;BME280;42558;52.388;13.390;2023-04-09T06:26:12;102282.36;;;2.88;100.00
56681;BME280;42558;52.388;13.390;2023-04-09T06:28:40;102282.61;;;2.96;100.00
56681;BME280;42558;52.388;13.390;2023-04-09T06:31:09;102278.86;;;2.90;100.00
56681;BME280;42558;52.388;13.390;2023-04-09T06:33:37;102278.23;;;3.09;100.00
56681;BME280;42558;52.388;13.390;2023-04-09T06:36:06;102281.92;;;3.20;100.00
56681;BME280;42558;52.388;13.390;2023-04-09T06:38:34;102281.86;;;3.29;100.00
56681;BME280;42558;52.388;13.390;2023-04-09T06:41:03;102282.36;;;3.52;100.00
56681;BME280;42558;52.388;13.390;2023-04-09T06:43:35;102282.10;;;3.58;100.00
56681;BME280;42558;52.388;13.390;2023-04-09T06:46:06;102282.63;;;3.90;100.00
56681;BME280;42558;52.388;13.390;2023-04-09T06:48:36;102283.22;;;4.16;100.00
56681;BME280;42558;52.388;13.390;2023-04-09T06:51:05;102284.44;;;4.16;100.00
56681;BME280;42558;52.388;13.390;2023-04-09T06:53:37;102286.41;;;4.30;100.00
56681;BME280;42558;52.388;13.390;2023-04-09T06:56:08;102286.98;;;4.45;100.00
56681;BME280;42558;52.388;13.390;2023-04-09T06:58:38;102285.06;;;5.07;100.00
56681;BME280;42558;52.388;13.390;2023-04-09T07:01:08;102285.77;;;5.33;99.92
56681;BME280;42558;52.388;13.390;2023-04-09T07:03:37;102279.96;;;5.47;98.50
56681;BME280;42558;52.388;13.390;2023-04-09T07:06:08;102282.13;;;5.63;97.51
56681;BME280;42558;52.388;13.390;2023-04-09T07:08:37;102283.16;;;5.81;95.77
56681;BME280;42558;52.388;13.390;2023-04-09T07:11:07;102284.20;;;6.08;95.75
56681;BME280;42558;52.388;13.390;2023-04-09T07:13:37;102285.91;;;6.48;93.31
56681;BME280;42558;52.388;13.390;2023-04-09T07:16:07;102286.70;;;6.25;90.84
56681;BME280;42558;52.388;13.390;2023-04-09T07:18:37;102294.25;;;6.44;92.42
56681;BME280;42558;52.388;13.390;2023-04-09T07:21:07;102296.95;;;6.78;90.14
56681;BME280;42558;52.388;13.390;2023-04-09T07:23:37;102297.57;;;6.83;88.53
56681;BME280;42558;52.388;13.390;2023-04-09T07:26:07;102295.71;;;7.31;89.58
56681;BME280;42558;52.388;13.390;2023-04-09T07:28:37;102295.95;;;7.32;86.49
56681;BME280;42558;52.388;13.390;2023-04-09T07:31:07;102291.67;;;7.51;85.40
56681;BME280;42558;52.388;13.390;2023-04-09T07:33:37;102287.09;;;7.68;84.66
56681;BME280;42558;52.388;13.390;2023-04-09T07:36:07;102284.39;;;7.63;83.97
56681;BME280;42558;52.388;13.390;2023-04-09T07:38:37;102286.21;;;7.44;84.26
56681;BME280;42558;52.388;13.390;2023-04-09T07:41:10;102281.67;;;7.93;84.74
56681;BME280;42558;52.388;13.390;2023-04-09T07:43:40;102280.00;;;8.02;80.57
56681;BME280;42558;52.388;13.390;2023-04-09T07:46:09;102281.39;;;7.91;79.87
56681;BME280;42558;52.388;13.390;2023-04-09T07:48:39;102285.09;;;8.02;81.11
56681;BME280;42558;52.388;13.390;2023-04-09T07:51:09;102291.55;;;8.34;81.63
56681;BME280;42558;52.388;13.390;2023-04-09T07:53:39;102293.30;;;8.56;80.15
56681;BME280;42558;52.388;13.390;2023-04-09T07:56:10;102291.74;;;8.41;80.31
56681;BME280;42558;52.388;13.390;2023-04-09T07:58:39;102284.89;;;8.79;80.82
56681;BME280;42558;52.388;13.390;2023-04-09T08:01:10;102285.27;;;8.76;78.29
56681;BME280;42558;52.388;13.390;2023-04-09T08:03:39;102286.22;;;8.89;81.13
56681;BME280;42558;52.388;13.390;2023-04-09T08:06:10;102283.70;;;9.44;79.16
56681;BME280;42558;52.388;13.390;2023-04-09T08:08:40;102282.09;;;9.68;75.20
56681;BME280;42558;52.388;13.390;2023-04-09T08:11:10;102282.10;;;9.35;75.68
56681;BME280;42558;52.388;13.390;2023-04-09T08:13:40;102287.52;;;9.14;76.89
56681;BME280;42558;52.388;13.390;2023-04-09T08:16:10;102290.19;;;8.84;78.08
56681;BME280;42558;52.388;13.390;2023-04-09T08:18:40;102285.60;;;9.47;77.08
56681;BME280;42558;52.388;13.390;2023-04-09T08:21:10;102289.73;;;9.83;75.84
56681;BME280;42558;52.388;13.390;2023-04-09T08:23:40;102291.30;;;9.96;72.22
56681;BME280;42558;52.388;13.390;2023-04-09T08:26:10;102286.64;;;9.68;73.23
56681;BME280;42558;52.388;13.390;2023-04-09T08:28:39;102291.55;;;9.85;73.44
56681;BME280;42558;52.388;13.390;2023-04-09T08:31:10;102291.39;;;9.98;71.62
56681;BME280;42558;52.388;13.390;2023-04-09T08:33:40;102294.84;;;9.83;72.79
56681;BME280;42558;52.388;13.390;2023-04-09T08:36:11;102295.37;;;10.09;72.77
56681;BME280;42558;52.388;13.390;2023-04-09T08:38:41;102292.05;;;10.68;71.67
56681;BME280;42558;52.388;13.390;2023-04-09T08:41:21;102294.46;;;10.99;67.98
56681;BME280;42558;52.388;13.390;2023-04-09T08:43:55;102300.10;;;10.62;67.82
56681;BME280;42558;52.388;13.390;2023-04-09T08:46:28;102300.76;;;10.16;68.63
56681;BME280;42558;52.388;13.390;2023-04-09T08:48:57;102297.43;;;9.57;71.17
56681;BME280;42558;52.388;13.390;2023-04-09T08:51:26;102296.79;;;9.92;71.08
56681;BME280;42558;52.388;13.390;2023-04-09T08:53:57;102296.77;;;10.18;70.88
56681;BME280;42558;52.388;13.390;2023-04-09T08:56:31;102293.61;;;10.09;68.62
56681;BME280;42558;52.388;13.390;2023-04-09T08:59:01;102290.56;;;9.44;69.88
56681;BME280;42558;52.388;13.390;2023-04-09T09:01:31;102290.40;;;9.87;72.01
56681;BME280;42558;52.388;13.390;2023-04-09T09:04:06;102287.36;;;9.89;70.14
56681;BME280;42558;52.388;13.390;2023-04-09T09:06:40;102285.71;;;10.40;69.50
56681;BME280;42558;52.388;13.390;2023-04-09T09:09:15;102282.21;;;10.31;70.16
56681;BME280;42558;52.388;13.390;2023-04-09T09:11:47;102279.75;;;10.92;69.98
56681;BME280;42558;52.388;13.390;2023-04-09T09:14:19;102275.73;;;11.07;67.46
56681;BME280;42558;52.388;13.390;2023-04-09T09:19:30;102267.35;;;11.50;66.88
56681;BME280;42558;52.388;13.390;2023-04-09T09:22:04;102269.51;;;11.01;69.12
56681;BME280;42558;52.388;13.390;2023-04-09T09:24:48;102268.80;;;11.30;67.69
56681;BME280;42558;52.388;13.390;2023-04-09T09:27:37;102266.86;;;11.30;67.37
56681;BME280;42558;52.388;13.390;2023-04-09T09:30:20;102261.05;;;11.76;66.10
56681;BME280;42558;52.388;13.390;2023-04-09T09:33:06;102266.23;;;10.92;67.13
56681;BME280;42558;52.388;13.390;2023-04-09T09:35:50;102263.23;;;11.79;67.90
56681;BME280;42558;52.388;13.390;2023-04-09T09:38:20;102253.34;;;12.82;64.27
56681;BME280;42558;52.388;13.390;2023-04-09T09:40:50;102257.12;;;12.01;63.00
56681;BME280;42558;52.388;13.390;2023-04-09T09:43:19;102252.82;;;11.83;66.64
56681;BME280;42558;52.388;13.390;2023-04-09T09:45:48;102246.71;;;12.65;63.35
56681;BME280;42558;52.388;13.390;2023-04-09T09:48:15;102241.33;;;12.62;62.81
56681;BME280;42558;52.388;13.390;2023-04-09T09:50:47;102245.08;;;11.73;65.66
56681;BME280;42558;52.388;13.390;2023-04-09T09:53:21;102239.59;;;11.46;65.15
56681;BME280;42558;52.388;13.390;2023-04-09T09:55:58;102239.88;;;12.62;65.52
56681;BME280;42558;52.388;13.390;2023-04-09T09:58:36;102236.30;;;12.96;61.75
56681;BME280;42558;52.388;13.390;2023-04-09T10:01:11;102231.63;;;12.68;58.66
56681;BME280;42558;52.388;13.390;2023-04-09T10:03:42;102234.13;;;12.21;61.14
56681;BME280;42558;52.388;13.390;2023-04-09T10:06:13;102227.25;;;12.16;62.49
56681;BME280;42558;52.388;13.390;2023-04-09T10:08:41;102230.25;;;12.76;63.46
56681;BME280;42558;52.388;13.390;2023-04-09T10:11:09;102226.91;;;12.76;60.83
56681;BME280;42558;52.388;13.390;2023-04-09T10:13:44;102225.98;;;13.18;60.55
56681;BME280;42558;52.388;13.390;2023-04-09T10:16:16;102220.13;;;13.25;61.20
56681;BME280;42558;52.388;13.390;2023-04-09T10:18:46;102225.20;;;13.50;59.79
56681;BME280;42558;52.388;13.390;2023-04-09T10:24:06;102223.95;;;13.56;59.33
56681;BME280;42558;52.388;13.390;2023-04-09T10:26:42;102225.58;;;13.51;60.69
56681;BME280;42558;52.388;13.390;2023-04-09T10:29:15;102221.64;;;13.09;60.18
56681;BME280;42558;52.388;13.390;2023-04-09T10:32:05;102224.23;;;13.19;60.83
56681;BME280;42558;52.388;13.390;2023-04-09T10:34:39;102221.98;;;13.15;60.37
56681;BME280;42558;52.388;13.390;2023-04-09T10:37:20;102222.75;;;13.50;59.91
56681;BME280;42558;52.388;13.390;2023-04-09T10:39:51;102225.48;;;13.40;61.87
56681;BME280;42558;52.388;13.390;2023-04-09T10:42:37;102224.61;;;14.07;60.43
56681;BME280;42558;52.388;13.390;2023-04-09T10:45:14;102222.52;;;13.48;60.70
56681;BME280;42558;52.388;13.390;2023-04-09T10:47:49;102224.27;;;14.15;60.27
56681;BME280;42558;52.388;13.390;2023-04-09T10:50:24;102229.36;;;13.26;61.54
56681;BME280;42558;52.388;13.390;2023-04-09T10:52:56;102226.55;;;12.82;62.45
56681;BME280;42558;52.388;13.390;2023-04-09T10:55:34;102228.79;;;13.31;62.49
56681;BME280;42558;52.388;13.390;2023-04-09T10:58:10;102225.31;;;13.40;60.41
56681;BME280;42558;52.388;13.390;2023-04-09T11:00:45;102226.29;;;13.30;61.72
56681;BME280;42558;52.388;13.390;2023-04-09T11:03:23;102226.02;;;13.54;61.36
56681;BME280;42558;52.388;13.390;2023-04-09T11:06:02;102224.12;;;13.56;59.18
56681;BME280;42558;52.388;13.390;2023-04-09T11:08:36;102226.32;;;13.59;61.09
56681;BME280;42558;52.388;13.390;2023-04-09T11:11:06;102224.88;;;14.09;59.60
56681;BME280;42558;52.388;13.390;2023-04-09T11:13:36;102224.30;;;13.62;58.44
56681;BME280;42558;52.388;13.390;2023-04-09T11:16:06;102222.51;;;13.69;58.58
56681;BME280;42558;52.388;13.390;2023-04-09T11:18:36;102219.08;;;14.19;58.95
56681;BME280;42558;52.388;13.390;2023-04-09T11:21:06;102216.09;;;14.43;57.58
56681;BME280;42558;52.388;13.390;2023-04-09T11:23:38;102219.23;;;13.51;58.07
56681;BME280;42558;52.388;13.390;2023-04-09T11:26:08;102214.72;;;13.40;58.66
56681;BME280;42558;52.388;13.390;2023-04-09T11:28:42;102207.63;;;13.46;59.63
56681;BME280;42558;52.388;13.390;2023-04-09T11:31:11;102200.63;;;13.56;59.68
56681;BME280;42558;52.388;13.390;2023-04-09T11:33:45;102199.21;;;13.49;59.38
56681;BME280;42558;52.388;13.390;2023-04-09T11:36:15;102196.63;;;13.24;60.04
56681;BME280;42558;52.388;13.390;2023-04-09T11:38:47;102199.89;;;13.14;60.36
56681;BME280;42558;52.388;13.390;2023-04-09T11:41:37;102199.34;;;13.27;60.02
56681;BME280;42558;52.388;13.390;2023-04-09T11:44:07;102196.21;;;13.28;59.22
56681;BME280;42558;52.388;13.390;2023-04-09T11:46:38;102196.91;;;13.63;60.40
56681;BME280;42558;52.388;13.390;2023-04-09T11:49:08;102190.80;;;13.12;59.86
56681;BME280;42558;52.388;13.390;2023-04-09T11:51:39;102193.39;;;13.28;60.23
56681;BME280;42558;52.388;13.390;2023-04-09T11:54:11;102190.33;;;13.47;60.46
56681;BME280;42558;52.388;13.390;2023-04-09T11:56:40;102190.55;;;13.35;58.50
56681;BME280;42558;52.388;13.390;2023-04-09T11:59:13;102195.02;;;12.77;60.36
56681;BME280;42558;52.388;13.390;2023-04-09T12:01:50;102194.59;;;13.01;60.07
56681;BME280;42558;52.388;13.390;2023-04-09T12:04:19;102198.10;;;13.61;59.40
56681;BME280;42558;52.388;13.390;2023-04-09T12:06:50;102197.49;;;13.51;58.11
56681;BME280;42558;52.388;13.390;2023-04-09T12:09:20;102202.09;;;13.51;59.13
56681;BME280;42558;52.388;13.390;2023-04-09T12:11:50;102197.18;;;13.06;59.51
56681;BME280;42558;52.388;13.390;2023-04-09T12:14:21;102195.38;;;12.91;60.60
56681;BME280;42558;52.388;13.390;2023-04-09T12:16:51;102194.11;;;13.09;60.72
56681;BME280;42558;52.388;13.390;2023-04-09T12:19:19;102193.45;;;13.73;57.83
56681;BME280;42558;52.388;13.390;2023-04-09T12:24:22;102190.85;;;12.93;58.12
56681;BME280;42558;52.388;13.390;2023-04-09T12:26:52;102197.09;;;12.82;59.51
56681;BME280;42558;52.388;13.390;2023-04-09T12:29:21;102199.63;;;12.79;58.16
56681;BME280;42558;52.388;13.390;2023-04-09T12:31:52;102195.75;;;12.85;56.66
56681;BME280;42558;52.388;13.390;2023-04-09T12:34:22;102201.95;;;13.32;57.35
56681;BME280;42558;52.388;13.390;2023-04-09T12:36:52;102203.64;;;13.28;56.62
56681;BME280;42558;52.388;13.390;2023-04-09T12:39:22;102190.90;;;12.95;55.47
56681;BME280;42558;52.388;13.390;2023-04-09T12:41:52;102191.67;;;13.45;55.99
56681;BME280;42558;52.388;13.390;2023-04-09T12:44:23;102189.25;;;13.46;55.29
56681;BME280;42558;52.388;13.390;2023-04-09T12:46:51;102184.83;;;13.46;55.54
56681;BME280;42558;52.388;13.390;2023-04-09T12:49:19;102181.53;;;13.14;55.66
56681;BME280;42558;52.388;13.390;2023-04-09T12:51:48;102181.48;;;13.46;55.01
56681;BME280;42558;52.388;13.390;2023-04-09T12:54:16;102177.33;;;13.50;53.11
56681;BME280;42558;52.388;13.390;2023-04-09T12:56:45;102176.95;;;13.64;54.99
56681;BME280;42558;52.388;13.390;2023-04-09T12:59:13;102171.30;;;13.71;52.98
56681;BME280;42558;52.388;13.390;2023-04-09T13:01:41;102168.09;;;13.85;53.62
56681;BME280;42558;52.388;13.390;2023-04-09T13:04:10;102167.63;;;13.66;51.94
56681;BME280;42558;52.388;13.390;2023-04-09T13:06:38;102168.99;;;13.08;53.99
56681;BME280;42558;52.388;13.390;2023-04-09T13:09:07;102168.57;;;13.24;55.69
56681;BME280;42558;52.388;13.390;2023-04-09T13:11:35;102165.98;;;13.34;55.19
56681;BME280;42558;52.388;13.390;2023-04-09T13:14:04;102163.17;;;13.42;55.31
56681;BME280;42558;52.388;13.390;2023-04-09T13:16:32;102161.80;;;13.66;55.47